CheckWX is a tool to help pilots better visualize weather data.  It is not intended as a substitute for an official pre-flight weather briefing.

06:12:36 UTC

KBDG METAR
Blanding Municipal Airport
Blanding, Utah, USA
Current

18 mins ago

KBDG 230555Z AUTO 05010KT 10SM 13/M01 A3017 RMK AO1 T01291015 10178 20096
Observed
Apr-23 @ 05:55 UTC
Wind
  • 050° at 10 KTS
Visibility
10 SM
Temperature
13°C / 55°F
Dewpoint
-2°C / 28°F
Humidity
36%
Altimeter
30.17" Hg
Pressure
1021.72 hPa
Previous

38 mins ago

KBDG 230535Z AUTO 05010KT 10SM 12/M01 A3017 RMK AO1 T01221012
Observed
Apr-23 @ 05:35 UTC
Wind
  • 050° at 10 KTS
Visibility
10 SM
Temperature
12°C / 54°F
Dewpoint
-1°C / 30°F
Humidity
41%
Altimeter
30.17" Hg
Pressure
1021.72 hPa
Previous

58 mins ago

KBDG 230515Z AUTO 06004KT 10SM 12/M02 A3016 RMK AO1 T01161017
Observed
Apr-23 @ 05:15 UTC
Wind
  • 060° at 4 KTS
Visibility
10 SM
Temperature
12°C / 54°F
Dewpoint
-2°C / 28°F
Humidity
38%
Altimeter
30.16" Hg
Pressure
1021.32 hPa